sensor_id;sensor_type;location;lat;lon;timestamp;temperature;humidity
4635;DHT22;2330;48.158;11.816;2023-03-19T00:00:19;7.00;98.50
4635;DHT22;2330;48.158;11.816;2023-03-19T00:02:46;7.30;98.50
4635;DHT22;2330;48.158;11.816;2023-03-19T00:05:17;7.40;98.50
4635;DHT22;2330;48.158;11.816;2023-03-19T00:07:45;7.50;98.50
4635;DHT22;2330;48.158;11.816;2023-03-19T00:10:12;7.10;98.50
4635;DHT22;2330;48.158;11.816;2023-03-19T00:12:39;6.60;98.50
4635;DHT22;2330;48.158;11.816;2023-03-19T00:15:06;6.30;98.50
4635;DHT22;2330;48.158;11.816;2023-03-19T00:17:34;6.10;98.50
4635;DHT22;2330;48.158;11.816;2023-03-19T00:20:01;6.30;98.50
4635;DHT22;2330;48.158;11.816;2023-03-19T00:22:28;6.20;98.50
4635;DHT22;2330;48.158;11.816;2023-03-19T00:24:55;6.30;98.50
4635;DHT22;2330;48.158;11.816;2023-03-19T00:27:21;6.40;98.50
4635;DHT22;2330;48.158;11.816;2023-03-19T00:29:48;6.60;98.50
4635;DHT22;2330;48.158;11.816;2023-03-19T00:32:15;6.70;98.50
4635;DHT22;2330;48.158;11.816;2023-03-19T00:34:42;6.80;98.50
4635;DHT22;2330;48.158;11.816;2023-03-19T00:37:09;6.60;98.50
4635;DHT22;2330;48.158;11.816;2023-03-19T00:39:35;6.70;98.50
4635;DHT22;2330;48.158;11.816;2023-03-19T00:42:02;6.80;98.50
4635;DHT22;2330;48.158;11.816;2023-03-19T00:44:29;6.90;98.50
4635;DHT22;2330;48.158;11.816;2023-03-19T00:46:56;6.80;98.50
4635;DHT22;2330;48.158;11.816;2023-03-19T00:49:23;6.50;98.50
4635;DHT22;2330;48.158;11.816;2023-03-19T00:51:50;6.40;98.50
4635;DHT22;2330;48.158;11.816;2023-03-19T00:54:16;6.40;98.50
4635;DHT22;2330;48.158;11.816;2023-03-19T00:56:43;6.10;98.50
4635;DHT22;2330;48.158;11.816;2023-03-19T00:59:10;5.90;98.50
4635;DHT22;2330;48.158;11.816;2023-03-19T01:01:37;5.80;98.50
4635;DHT22;2330;48.158;11.816;2023-03-19T01:04:04;5.60;98.50
4635;DHT22;2330;48.158;11.816;2023-03-19T01:06:31;5.60;98.50
4635;DHT22;2330;48.158;11.816;2023-03-19T01:08:57;5.50;98.50
4635;DHT22;2330;48.158;11.816;2023-03-19T01:11:24;5.50;98.50
4635;DHT22;2330;48.158;11.816;2023-03-19T01:13:51;5.80;98.50
4635;DHT22;2330;48.158;11.816;2023-03-19T01:16:18;6.00;98.50
4635;DHT22;2330;48.158;11.816;2023-03-19T01:18:44;6.20;98.50
4635;DHT22;2330;48.158;11.816;2023-03-19T01:21:12;6.10;98.50
4635;DHT22;2330;48.158;11.816;2023-03-19T01:23:39;5.80;98.50
4635;DHT22;2330;48.158;11.816;2023-03-19T01:26:06;5.60;98.50
4635;DHT22;2330;48.158;11.816;2023-03-19T01:28:33;5.50;98.50
4635;DHT22;2330;48.158;11.816;2023-03-19T01:31:05;5.50;98.50
4635;DHT22;2330;48.158;11.816;2023-03-19T01:33:32;5.50;98.50
4635;DHT22;2330;48.158;11.816;2023-03-19T01:35:59;5.40;98.50
4635;DHT22;2330;48.158;11.816;2023-03-19T01:38:29;5.40;98.50
4635;DHT22;2330;48.158;11.816;2023-03-19T01:40:56;5.30;98.50
4635;DHT22;2330;48.158;11.816;2023-03-19T01:43:25;5.30;98.50
4635;DHT22;2330;48.158;11.816;2023-03-19T01:45:59;5.40;98.50
4635;DHT22;2330;48.158;11.816;2023-03-19T01:48:45;5.40;98.50
4635;DHT22;2330;48.158;11.816;2023-03-19T01:51:17;5.50;98.50
4635;DHT22;2330;48.158;11.816;2023-03-19T01:53:51;5.60;98.50
4635;DHT22;2330;48.158;11.816;2023-03-19T01:56:27;5.60;98.50
4635;DHT22;2330;48.158;11.816;2023-03-19T01:59:03;5.80;98.50
4635;DHT22;2330;48.158;11.816;2023-03-19T02:01:35;5.70;98.50
4635;DHT22;2330;48.158;11.816;2023-03-19T02:04:04;5.70;98.50
4635;DHT22;2330;48.158;11.816;2023-03-19T02:06:31;5.90;98.50
4635;DHT22;2330;48.158;11.816;2023-03-19T02:08:58;6.00;98.50
4635;DHT22;2330;48.158;11.816;2023-03-19T02:11:25;5.90;98.50
4635;DHT22;2330;48.158;11.816;2023-03-19T02:13:53;5.70;98.50
4635;DHT22;2330;48.158;11.816;2023-03-19T02:16:20;5.60;98.50
4635;DHT22;2330;48.158;11.816;2023-03-19T02:18:47;5.50;98.50
4635;DHT22;2330;48.158;11.816;2023-03-19T02:21:16;5.50;98.50
4635;DHT22;2330;48.158;11.816;2023-03-19T02:26:29;5.50;98.50
4635;DHT22;2330;48.158;11.816;2023-03-19T02:28:56;5.40;98.50
4635;DHT22;2330;48.158;11.816;2023-03-19T02:31:23;5.30;98.50
4635;DHT22;2330;48.158;11.816;2023-03-19T02:34:04;5.30;98.50
4635;DHT22;2330;48.158;11.816;2023-03-19T02:36:36;5.30;98.50
4635;DHT22;2330;48.158;11.816;2023-03-19T02:39:19;5.30;98.50
4635;DHT22;2330;48.158;11.816;2023-03-19T02:41:48;5.30;98.50
4635;DHT22;2330;48.158;11.816;2023-03-19T02:44:15;5.20;98.50
4635;DHT22;2330;48.158;11.816;2023-03-19T02:46:45;5.20;98.50
4635;DHT22;2330;48.158;11.816;2023-03-19T02:49:12;5.40;98.50
4635;DHT22;2330;48.158;11.816;2023-03-19T02:51:39;5.40;98.50
4635;DHT22;2330;48.158;11.816;2023-03-19T02:54:07;5.40;98.50
4635;DHT22;2330;48.158;11.816;2023-03-19T02:56:34;5.40;98.50
4635;DHT22;2330;48.158;11.816;2023-03-19T02:59:01;5.40;98.50
4635;DHT22;2330;48.158;11.816;2023-03-19T03:01:28;5.10;98.50
4635;DHT22;2330;48.158;11.816;2023-03-19T03:03:55;4.90;98.50
4635;DHT22;2330;48.158;11.816;2023-03-19T03:06:22;4.80;98.50
4635;DHT22;2330;48.158;11.816;2023-03-19T03:08:49;4.70;98.50
4635;DHT22;2330;48.158;11.816;2023-03-19T03:11:15;4.80;98.50
4635;DHT22;2330;48.158;11.816;2023-03-19T03:13:42;4.90;98.50
4635;DHT22;2330;48.158;11.816;2023-03-19T03:16:09;5.00;98.50
4635;DHT22;2330;48.158;11.816;2023-03-19T03:18:36;5.20;98.50
4635;DHT22;2330;48.158;11.816;2023-03-19T03:21:03;5.40;98.50
4635;DHT22;2330;48.158;11.816;2023-03-19T03:23:30;5.40;98.50
4635;DHT22;2330;48.158;11.816;2023-03-19T03:25:56;5.20;98.50
4635;DHT22;2330;48.158;11.816;2023-03-19T03:28:23;5.20;98.50
4635;DHT22;2330;48.158;11.816;2023-03-19T03:30:50;5.20;98.50
4635;DHT22;2330;48.158;11.816;2023-03-19T03:33:17;4.90;98.50
4635;DHT22;2330;48.158;11.816;2023-03-19T03:35:43;4.70;98.50
4635;DHT22;2330;48.158;11.816;2023-03-19T03:38:10;4.60;98.50
4635;DHT22;2330;48.158;11.816;2023-03-19T03:40:38;4.60;98.50
4635;DHT22;2330;48.158;11.816;2023-03-19T03:43:04;4.60;98.50
4635;DHT22;2330;48.158;11.816;2023-03-19T03:45:31;4.80;98.50
4635;DHT22;2330;48.158;11.816;2023-03-19T03:47:58;4.80;98.50
4635;DHT22;2330;48.158;11.816;2023-03-19T03:50:25;4.80;98.50
4635;DHT22;2330;48.158;11.816;2023-03-19T03:52:52;4.90;98.50
4635;DHT22;2330;48.158;11.816;2023-03-19T03:55:19;5.00;98.50
4635;DHT22;2330;48.158;11.816;2023-03-19T03:57:46;5.10;98.50
4635;DHT22;2330;48.158;11.816;2023-03-19T04:00:13;5.10;98.50
4635;DHT22;2330;48.158;11.816;2023-03-19T04:02:40;4.80;98.50
4635;DHT22;2330;48.158;11.816;2023-03-19T04:05:07;4.70;98.50
4635;DHT22;2330;48.158;11.816;2023-03-19T04:07:36;4.70;98.50
4635;DHT22;2330;48.158;11.816;2023-03-19T04:10:04;4.70;98.50
4635;DHT22;2330;48.158;11.816;2023-03-19T04:12:31;4.80;98.50
4635;DHT22;2330;48.158;11.816;2023-03-19T04:14:58;4.80;98.50
4635;DHT22;2330;48.158;11.816;2023-03-19T04:17:25;4.80;98.50
4635;DHT22;2330;48.158;11.816;2023-03-19T04:19:51;4.90;98.50
4635;DHT22;2330;48.158;11.816;2023-03-19T04:22:18;4.90;98.50
4635;DHT22;2330;48.158;11.816;2023-03-19T04:24:45;5.00;98.50
4635;DHT22;2330;48.158;11.816;2023-03-19T04:27:12;5.00;98.50
4635;DHT22;2330;48.158;11.816;2023-03-19T04:29:38;4.90;98.50
4635;DHT22;2330;48.158;11.816;2023-03-19T04:32:06;5.00;98.50
4635;DHT22;2330;48.158;11.816;2023-03-19T04:34:32;5.00;98.50
4635;DHT22;2330;48.158;11.816;2023-03-19T04:37:00;5.00;98.50
4635;DHT22;2330;48.158;11.816;2023-03-19T04:39:27;5.00;98.50
4635;DHT22;2330;48.158;11.816;2023-03-19T04:41:54;5.00;98.50
4635;DHT22;2330;48.158;11.816;2023-03-19T04:44:21;5.00;98.50
4635;DHT22;2330;48.158;11.816;2023-03-19T04:46:48;5.00;98.50
4635;DHT22;2330;48.158;11.816;2023-03-19T04:49:24;5.10;98.50
4635;DHT22;2330;48.158;11.816;2023-03-19T04:51:51;5.10;98.50
4635;DHT22;2330;48.158;11.816;2023-03-19T04:54:18;5.20;98.50
4635;DHT22;2330;48.158;11.816;2023-03-19T04:56:46;5.20;98.50
4635;DHT22;2330;48.158;11.816;2023-03-19T04:59:13;5.20;98.50
4635;DHT22;2330;48.158;11.816;2023-03-19T05:01:40;5.20;98.50
4635;DHT22;2330;48.158;11.816;2023-03-19T05:04:07;5.20;98.50
4635;DHT22;2330;48.158;11.816;2023-03-19T05:06:34;5.20;98.50
4635;DHT22;2330;48.158;11.816;2023-03-19T05:09:02;5.20;98.50
4635;DHT22;2330;48.158;11.816;2023-03-19T05:11:29;5.30;98.50
4635;DHT22;2330;48.158;11.816;2023-03-19T05:13:56;5.40;98.50
4635;DHT22;2330;48.158;11.816;2023-03-19T05:16:23;5.40;98.50
4635;DHT22;2330;48.158;11.816;2023-03-19T05:18:50;5.40;98.50
4635;DHT22;2330;48.158;11.816;2023-03-19T05:21:16;5.50;98.50
4635;DHT22;2330;48.158;11.816;2023-03-19T05:23:43;5.50;98.50
4635;DHT22;2330;48.158;11.816;2023-03-19T05:26:10;5.50;98.50
4635;DHT22;2330;48.158;11.816;2023-03-19T05:28:38;5.50;98.50
4635;DHT22;2330;48.158;11.816;2023-03-19T05:31:05;5.50;98.50
4635;DHT22;2330;48.158;11.816;2023-03-19T05:33:32;5.60;98.50
4635;DHT22;2330;48.158;11.816;2023-03-19T05:35:59;5.60;98.50
4635;DHT22;2330;48.158;11.816;2023-03-19T05:38:26;5.60;98.50
4635;DHT22;2330;48.158;11.816;2023-03-19T05:40:53;5.60;98.50
4635;DHT22;2330;48.158;11.816;2023-03-19T05:43:19;5.70;98.50
4635;DHT22;2330;48.158;11.816;2023-03-19T05:45:50;5.80;98.50
4635;DHT22;2330;48.158;11.816;2023-03-19T05:48:20;5.90;98.50
4635;DHT22;2330;48.158;11.816;2023-03-19T05:50:47;6.00;98.50
4635;DHT22;2330;48.158;11.816;2023-03-19T05:53:13;6.00;98.50
4635;DHT22;2330;48.158;11.816;2023-03-19T05:55:41;6.10;98.50
4635;DHT22;2330;48.158;11.816;2023-03-19T05:58:08;6.20;98.50
4635;DHT22;2330;48.158;11.816;2023-03-19T06:00:35;6.20;98.50
4635;DHT22;2330;48.158;11.816;2023-03-19T06:03:02;6.30;98.50
4635;DHT22;2330;48.158;11.816;2023-03-19T06:05:29;6.30;98.50
4635;DHT22;2330;48.158;11.816;2023-03-19T06:07:55;6.40;98.50
4635;DHT22;2330;48.158;11.816;2023-03-19T06:10:22;6.50;98.50
4635;DHT22;2330;48.158;11.816;2023-03-19T06:12:49;6.60;98.50
4635;DHT22;2330;48.158;11.816;2023-03-19T06:15:16;6.70;98.50
4635;DHT22;2330;48.158;11.816;2023-03-19T06:17:43;6.80;98.50
4635;DHT22;2330;48.158;11.816;2023-03-19T06:20:11;6.90;98.50
4635;DHT22;2330;48.158;11.816;2023-03-19T06:22:37;7.10;98.50
4635;DHT22;2330;48.158;11.816;2023-03-19T06:25:04;7.20;98.50
4635;DHT22;2330;48.158;11.816;2023-03-19T06:27:32;7.30;98.50
4635;DHT22;2330;48.158;11.816;2023-03-19T06:29:58;7.30;98.50
4635;DHT22;2330;48.158;11.816;2023-03-19T06:32:25;7.40;98.50
4635;DHT22;2330;48.158;11.816;2023-03-19T06:34:52;7.40;98.50
4635;DHT22;2330;48.158;11.816;2023-03-19T06:37:20;7.40;98.50
4635;DHT22;2330;48.158;11.816;2023-03-19T06:39:47;7.40;98.50
4635;DHT22;2330;48.158;11.816;2023-03-19T06:42:14;7.50;98.50
4635;DHT22;2330;48.158;11.816;2023-03-19T06:44:41;7.40;98.50
4635;DHT22;2330;48.158;11.816;2023-03-19T06:47:08;7.40;98.50
4635;DHT22;2330;48.158;11.816;2023-03-19T06:49:35;7.40;98.50
4635;DHT22;2330;48.158;11.816;2023-03-19T06:52:03;7.40;98.50
4635;DHT22;2330;48.158;11.816;2023-03-19T06:54:30;7.40;98.50
4635;DHT22;2330;48.158;11.816;2023-03-19T06:56:57;7.50;98.50
4635;DHT22;2330;48.158;11.816;2023-03-19T06:59:25;7.50;98.50
4635;DHT22;2330;48.158;11.816;2023-03-19T07:01:52;7.60;98.50
4635;DHT22;2330;48.158;11.816;2023-03-19T07:04:18;7.70;98.50
4635;DHT22;2330;48.158;11.816;2023-03-19T07:06:46;7.80;98.50
4635;DHT22;2330;48.158;11.816;2023-03-19T07:09:12;7.90;98.50
4635;DHT22;2330;48.158;11.816;2023-03-19T07:11:39;8.00;98.50
4635;DHT22;2330;48.158;11.816;2023-03-19T07:14:06;8.00;98.50
4635;DHT22;2330;48.158;11.816;2023-03-19T07:16:33;8.10;98.50
4635;DHT22;2330;48.158;11.816;2023-03-19T07:19:00;8.10;98.50
4635;DHT22;2330;48.158;11.816;2023-03-19T07:21:27;8.20;98.50
4635;DHT22;2330;48.158;11.816;2023-03-19T07:23:54;8.20;98.50
4635;DHT22;2330;48.158;11.816;2023-03-19T07:26:21;8.20;98.50
4635;DHT22;2330;48.158;11.816;2023-03-19T07:28:48;8.30;98.50
4635;DHT22;2330;48.158;11.816;2023-03-19T07:31:15;8.30;98.50
4635;DHT22;2330;48.158;11.816;2023-03-19T07:33:42;8.40;98.50
4635;DHT22;2330;48.158;11.816;2023-03-19T07:36:09;8.40;98.50
4635;DHT22;2330;48.158;11.816;2023-03-19T07:38:36;8.50;98.50
4635;DHT22;2330;48.158;11.816;2023-03-19T07:41:03;8.50;98.50
4635;DHT22;2330;48.158;11.816;2023-03-19T07:43:30;8.60;98.50
4635;DHT22;2330;48.158;11.816;2023-03-19T07:45:58;8.60;98.50
4635;DHT22;2330;48.158;11.816;2023-03-19T07:48:25;8.70;98.50
4635;DHT22;2330;48.158;11.816;2023-03-19T07:50:52;8.80;98.50
4635;DHT22;2330;48.158;11.816;2023-03-19T07:53:19;8.90;98.50
4635;DHT22;2330;48.158;11.816;2023-03-19T07:55:47;9.10;98.50
4635;DHT22;2330;48.158;11.816;2023-03-19T07:58:14;9.20;98.50
4635;DHT22;2330;48.158;11.816;2023-03-19T08:00:40;9.30;98.50
4635;DHT22;2330;48.158;11.816;2023-03-19T08:03:07;9.40;98.50
4635;DHT22;2330;48.158;11.816;2023-03-19T08:05:34;9.50;98.50
4635;DHT22;2330;48.158;11.816;2023-03-19T08:08:01;9.60;98.50
4635;DHT22;2330;48.158;11.816;2023-03-19T08:10:27;9.70;98.50
4635;DHT22;2330;48.158;11.816;2023-03-19T08:12:54;9.70;98.50
4635;DHT22;2330;48.158;11.816;2023-03-19T08:15:21;9.80;98.50
4635;DHT22;2330;48.158;11.816;2023-03-19T08:17:48;9.80;98.50
4635;DHT22;2330;48.158;11.816;2023-03-19T08:20:15;9.80;98.50
4635;DHT22;2330;48.158;11.816;2023-03-19T08:22:42;10.00;98.50
4635;DHT22;2330;48.158;11.816;2023-03-19T08:25:09;10.10;98.50
4635;DHT22;2330;48.158;11.816;2023-03-19T08:27:36;10.20;98.50
4635;DHT22;2330;48.158;11.816;2023-03-19T08:30:05;10.20;98.50
4635;DHT22;2330;48.158;11.816;2023-03-19T08:32:33;10.20;98.50
4635;DHT22;2330;48.158;11.816;2023-03-19T08:34:59;10.20;98.50
4635;DHT22;2330;48.158;11.816;2023-03-19T08:37:26;10.30;98.50
4635;DHT22;2330;48.158;11.816;2023-03-19T08:39:53;10.30;98.50
4635;DHT22;2330;48.158;11.816;2023-03-19T08:42:22;10.30;98.50
4635;DHT22;2330;48.158;11.816;2023-03-19T08:44:49;10.40;98.50
4635;DHT22;2330;48.158;11.816;2023-03-19T08:47:16;10.50;98.50
4635;DHT22;2330;48.158;11.816;2023-03-19T08:49:43;10.50;98.50
4635;DHT22;2330;48.158;11.816;2023-03-19T08:52:09;10.50;98.50
4635;DHT22;2330;48.158;11.816;2023-03-19T08:54:36;10.50;98.50
4635;DHT22;2330;48.158;11.816;2023-03-19T08:57:03;10.50;98.50
4635;DHT22;2330;48.158;11.816;2023-03-19T08:59:30;10.60;98.50
4635;DHT22;2330;48.158;11.816;2023-03-19T09:01:59;10.60;98.50
4635;DHT22;2330;48.158;11.816;2023-03-19T09:04:27;10.60;98.50
4635;DHT22;2330;48.158;11.816;2023-03-19T09:06:54;10.50;98.50
4635;DHT22;2330;48.158;11.816;2023-03-19T09:09:22;10.60;98.50
4635;DHT22;2330;48.158;11.816;2023-03-19T09:11:50;10.60;98.50
4635;DHT22;2330;48.158;11.816;2023-03-19T09:14:17;10.60;98.50
4635;DHT22;2330;48.158;11.816;2023-03-19T09:16:45;10.70;98.50
4635;DHT22;2330;48.158;11.816;2023-03-19T09:19:13;10.80;98.50
4635;DHT22;2330;48.158;11.816;2023-03-19T09:21:39;10.80;98.50
4635;DHT22;2330;48.158;11.816;2023-03-19T09:24:06;10.90;98.50
4635;DHT22;2330;48.158;11.816;2023-03-19T09:26:33;10.90;98.50
4635;DHT22;2330;48.158;11.816;2023-03-19T09:29:00;11.00;98.50
4635;DHT22;2330;48.158;11.816;2023-03-19T09:31:27;11.10;98.50
4635;DHT22;2330;48.158;11.816;2023-03-19T09:33:55;11.20;98.50
4635;DHT22;2330;48.158;11.816;2023-03-19T09:36:22;11.30;98.50
4635;DHT22;2330;48.158;11.816;2023-03-19T09:38:49;11.30;98.50
4635;DHT22;2330;48.158;11.816;2023-03-19T09:44:12;11.50;98.50
4635;DHT22;2330;48.158;11.816;2023-03-19T09:49:42;11.60;98.50
4635;DHT22;2330;48.158;11.816;2023-03-19T09:55:47;11.60;98.50
4635;DHT22;2330;48.158;11.816;2023-03-19T09:57:47;11.60;98.50
4635;DHT22;2330;48.158;11.816;2023-03-19T10:00:31;11.60;98.50
4635;DHT22;2330;48.158;11.816;2023-03-19T10:06:01;11.50;98.50
4635;DHT22;2330;48.158;11.816;2023-03-19T10:20:27;12.20;98.50
4635;DHT22;2330;48.158;11.816;2023-03-19T10:26:04;12.50;98.50
4635;DHT22;2330;48.158;11.816;2023-03-19T10:28:31;12.60;98.50
4635;DHT22;2330;48.158;11.816;2023-03-19T10:31:11;12.60;98.50
4635;DHT22;2330;48.158;11.816;2023-03-19T10:36:20;12.80;98.50
4635;DHT22;2330;48.158;11.816;2023-03-19T10:38:50;13.00;98.50
4635;DHT22;2330;48.158;11.816;2023-03-19T10:43:54;13.30;98.50
4635;DHT22;2330;48.158;11.816;2023-03-19T10:46:22;13.70;98.50
4635;DHT22;2330;48.158;11.816;2023-03-19T10:48:49;14.00;98.50
4635;DHT22;2330;48.158;11.816;2023-03-19T10:51:21;14.10;97.40
4635;DHT22;2330;48.158;11.816;2023-03-19T10:53:52;14.10;97.30
4635;DHT22;2330;48.158;11.816;2023-03-19T10:56:22;14.10;97.70
4635;DHT22;2330;48.158;11.816;2023-03-19T10:59:04;14.20;97.80
4635;DHT22;2330;48.158;11.816;2023-03-19T11:01:38;14.20;96.60
4635;DHT22;2330;48.158;11.816;2023-03-19T11:04:16;14.30;96.60
4635;DHT22;2330;48.158;11.816;2023-03-19T11:06:48;14.50;95.40
4635;DHT22;2330;48.158;11.816;2023-03-19T11:12:06;14.30;94.30
4635;DHT22;2330;48.158;11.816;2023-03-19T11:14:34;14.30;95.50
4635;DHT22;2330;48.158;11.816;2023-03-19T11:19:52;14.30;96.80
4635;DHT22;2330;48.158;11.816;2023-03-19T11:27:59;14.40;95.90
4635;DHT22;2330;48.158;11.816;2023-03-19T11:30:32;14.30;95.50
4635;DHT22;2330;48.158;11.816;2023-03-19T11:33:16;14.30;96.70
4635;DHT22;2330;48.158;11.816;2023-03-19T11:35:58;14.20;95.80
4635;DHT22;2330;48.158;11.816;2023-03-19T11:38:38;14.20;97.00
4635;DHT22;2330;48.158;11.816;2023-03-19T11:43:44;14.10;96.10
4635;DHT22;2330;48.158;11.816;2023-03-19T11:54:49;14.00;96.00
4635;DHT22;2330;48.158;11.816;2023-03-19T12:00:40;14.00;97.40
4635;DHT22;2330;48.158;11.816;2023-03-19T12:05:58;14.10;95.90
4635;DHT22;2330;48.158;11.816;2023-03-19T12:08:38;14.10;96.30
4635;DHT22;2330;48.158;11.816;2023-03-19T12:11:18;14.20;96.10
4635;DHT22;2330;48.158;11.816;2023-03-19T12:17:22;14.40;97.10
4635;DHT22;2330;48.158;11.816;2023-03-19T12:19:48;14.40;96.40
4635;DHT22;2330;48.158;11.816;2023-03-19T12:30:52;16.30;91.30
4635;DHT22;2330;48.158;11.816;2023-03-19T12:36:02;16.10;90.00
4635;DHT22;2330;48.158;11.816;2023-03-19T12:41:26;15.70;91.90
4635;DHT22;2330;48.158;11.816;2023-03-19T12:44:35;15.40;92.40
4635;DHT22;2330;48.158;11.816;2023-03-19T12:47:15;15.20;92.80
4635;DHT22;2330;48.158;11.816;2023-03-19T12:49:52;15.00;93.10
4635;DHT22;2330;48.158;11.816;2023-03-19T12:52:28;14.90;94.00
4635;DHT22;2330;48.158;11.816;2023-03-19T12:57:57;15.10;93.40
4635;DHT22;2330;48.158;11.816;2023-03-19T13:00:48;15.30;92.90
4635;DHT22;2330;48.158;11.816;2023-03-19T13:11:34;16.50;90.40
4635;DHT22;2330;48.158;11.816;2023-03-19T13:17:36;17.10;87.60
4635;DHT22;2330;48.158;11.816;2023-03-19T13:20:24;16.80;86.70
4635;DHT22;2330;48.158;11.816;2023-03-19T13:22:56;16.80;86.70
4635;DHT22;2330;48.158;11.816;2023-03-19T13:25:40;16.70;87.50
4635;DHT22;2330;48.158;11.816;2023-03-19T13:28:16;16.80;87.70
4635;DHT22;2330;48.158;11.816;2023-03-19T13:31:00;16.90;87.40
4635;DHT22;2330;48.158;11.816;2023-03-19T13:33:28;16.90;87.30
4635;DHT22;2330;48.158;11.816;2023-03-19T13:35:56;16.70;85.80
4635;DHT22;2330;48.158;11.816;2023-03-19T13:38:46;15.70;87.70
4635;DHT22;2330;48.158;11.816;2023-03-19T13:46:48;15.10;90.90
4635;DHT22;2330;48.158;11.816;2023-03-19T13:51:53;15.10;91.80
4635;DHT22;2330;48.158;11.816;2023-03-19T13:54:32;14.80;92.00
4635;DHT22;2330;48.158;11.816;2023-03-19T13:59:38;15.00;92.20
4635;DHT22;2330;48.158;11.816;2023-03-19T14:04:59;14.90;92.30
4635;DHT22;2330;48.158;11.816;2023-03-19T14:07:36;14.80;92.90
4635;DHT22;2330;48.158;11.816;2023-03-19T14:10:07;14.70;93.20
4635;DHT22;2330;48.158;11.816;2023-03-19T14:12:39;14.70;93.80
4635;DHT22;2330;48.158;11.816;2023-03-19T14:17:39;14.60;92.20
4635;DHT22;2330;48.158;11.816;2023-03-19T14:25:57;14.30;93.50
4635;DHT22;2330;48.158;11.816;2023-03-19T14:28:34;14.00;93.60
4635;DHT22;2330;48.158;11.816;2023-03-19T14:31:02;14.00;94.30
4635;DHT22;2330;48.158;11.816;2023-03-19T14:36:04;13.90;94.50
4635;DHT22;2330;48.158;11.816;2023-03-19T14:38:37;13.90;94.20
4635;DHT22;2330;48.158;11.816;2023-03-19T14:41:05;13.90;94.30
4635;DHT22;2330;48.158;11.816;2023-03-19T14:52:00;13.80;95.00
4635;DHT22;2330;48.158;11.816;2023-03-19T14:54:47;13.80;94.90
4635;DHT22;2330;48.158;11.816;2023-03-19T14:57:19;13.80;95.00
4635;DHT22;2330;48.158;11.816;2023-03-19T14:59:48;13.80;95.00
4635;DHT22;2330;48.158;11.816;2023-03-19T15:02:34;13.80;94.50
4635;DHT22;2330;48.158;11.816;2023-03-19T15:07:44;14.00;94.90
4635;DHT22;2330;48.158;11.816;2023-03-19T15:10:17;14.20;94.10
4635;DHT22;2330;48.158;11.816;2023-03-19T15:13:12;14.40;93.60
4635;DHT22;2330;48.158;11.816;2023-03-19T15:18:16;15.00;92.70
4635;DHT22;2330;48.158;11.816;2023-03-19T15:20:50;15.00;91.70
4635;DHT22;2330;48.158;11.816;2023-03-19T15:23:21;15.00;91.50
4635;DHT22;2330;48.158;11.816;2023-03-19T15:26:02;15.00;91.50
4635;DHT22;2330;48.158;11.816;2023-03-19T15:28:51;14.90;91.70
4635;DHT22;2330;48.158;11.816;2023-03-19T15:31:19;15.00;91.80
4635;DHT22;2330;48.158;11.816;2023-03-19T15:34:21;15.10;91.00
4635;DHT22;2330;48.158;11.816;2023-03-19T15:36:52;15.10;90.50
4635;DHT22;2330;48.158;11.816;2023-03-19T15:39:23;15.00;90.00
4635;DHT22;2330;48.158;11.816;2023-03-19T15:41:53;14.90;89.90
4635;DHT22;2330;48.158;11.816;2023-03-19T15:44:32;14.60;90.90
4635;DHT22;2330;48.158;11.816;2023-03-19T15:47:03;14.30;91.50
4635;DHT22;2330;48.158;11.816;2023-03-19T15:49:43;14.00;92.10
4635;DHT22;2330;48.158;11.816;2023-03-19T15:52:14;14.00;92.50
4635;DHT22;2330;48.158;11.816;2023-03-19T15:54:42;13.90;91.80
4635;DHT22;2330;48.158;11.816;2023-03-19T15:57:11;13.90;91.80
4635;DHT22;2330;48.158;11.816;2023-03-19T15:59:40;13.80;92.30
4635;DHT22;2330;48.158;11.816;2023-03-19T16:02:15;13.90;92.70
4635;DHT22;2330;48.158;11.816;2023-03-19T16:04:44;14.10;92.00
4635;DHT22;2330;48.158;11.816;2023-03-19T16:07:41;14.20;91.60
4635;DHT22;2330;48.158;11.816;2023-03-19T16:12:55;14.20;92.00
4635;DHT22;2330;48.158;11.816;2023-03-19T16:15:52;14.30;92.20
4635;DHT22;2330;48.158;11.816;2023-03-19T16:21:06;14.00;91.70
4635;DHT22;2330;48.158;11.816;2023-03-19T16:23:36;13.90;91.60
4635;DHT22;2330;48.158;11.816;2023-03-19T16:26:19;13.80;92.50
4635;DHT22;2330;48.158;11.816;2023-03-19T16:28:58;13.80;92.20
4635;DHT22;2330;48.158;11.816;2023-03-19T16:31:29;13.50;93.00
4635;DHT22;2330;48.158;11.816;2023-03-19T16:33:59;13.50;92.90
4635;DHT22;2330;48.158;11.816;2023-03-19T16:36:27;13.50;93.60
4635;DHT22;2330;48.158;11.816;2023-03-19T16:38:58;13.40;94.30
4635;DHT22;2330;48.158;11.816;2023-03-19T16:41:38;13.30;94.70
4635;DHT22;2330;48.158;11.816;2023-03-19T16:44:16;13.20;94.70
4635;DHT22;2330;48.158;11.816;2023-03-19T16:46:43;13.10;94.80
4635;DHT22;2330;48.158;11.816;2023-03-19T16:49:10;13.00;95.20
4635;DHT22;2330;48.158;11.816;2023-03-19T16:51:38;12.90;95.50
4635;DHT22;2330;48.158;11.816;2023-03-19T16:54:05;12.80;96.10
4635;DHT22;2330;48.158;11.816;2023-03-19T16:56:32;12.70;96.60
4635;DHT22;2330;48.158;11.816;2023-03-19T16:59:00;12.60;97.80
4635;DHT22;2330;48.158;11.816;2023-03-19T17:01:28;12.40;97.70
4635;DHT22;2330;48.158;11.816;2023-03-19T17:03:55;12.30;97.40
4635;DHT22;2330;48.158;11.816;2023-03-19T17:06:21;12.30;97.50
4635;DHT22;2330;48.158;11.816;2023-03-19T17:08:48;12.20;97.70
4635;DHT22;2330;48.158;11.816;2023-03-19T17:11:28;12.20;98.20
4635;DHT22;2330;48.158;11.816;2023-03-19T17:13:57;12.10;98.50
4635;DHT22;2330;48.158;11.816;2023-03-19T17:16:26;12.10;98.50
4635;DHT22;2330;48.158;11.816;2023-03-19T17:18:53;12.00;98.50
4635;DHT22;2330;48.158;11.816;2023-03-19T17:21:26;11.90;98.50
4635;DHT22;2330;48.158;11.816;2023-03-19T17:23:54;11.90;98.50
4635;DHT22;2330;48.158;11.816;2023-03-19T17:28:48;11.80;98.50
4635;DHT22;2330;48.158;11.816;2023-03-19T17:31:31;11.80;98.50
4635;DHT22;2330;48.158;11.816;2023-03-19T17:34:03;11.80;98.50
4635;DHT22;2330;48.158;11.816;2023-03-19T17:36:31;11.70;98.50
4635;DHT22;2330;48.158;11.816;2023-03-19T17:38:58;11.70;98.50
4635;DHT22;2330;48.158;11.816;2023-03-19T17:41:25;11.60;98.50
4635;DHT22;2330;48.158;11.816;2023-03-19T17:43:52;11.50;98.50
4635;DHT22;2330;48.158;11.816;2023-03-19T17:46:21;11.40;98.50
4635;DHT22;2330;48.158;11.816;2023-03-19T17:48:49;11.40;98.50
4635;DHT22;2330;48.158;11.816;2023-03-19T17:51:17;11.40;98.50
4635;DHT22;2330;48.158;11.816;2023-03-19T17:53:48;11.40;98.50
4635;DHT22;2330;48.158;11.816;2023-03-19T17:56:17;11.40;98.50
4635;DHT22;2330;48.158;11.816;2023-03-19T17:58:44;11.30;98.50
4635;DHT22;2330;48.158;11.816;2023-03-19T18:01:24;11.30;98.50
4635;DHT22;2330;48.158;11.816;2023-03-19T18:03:53;11.20;98.50
4635;DHT22;2330;48.158;11.816;2023-03-19T18:06:30;11.20;98.50
4635;DHT22;2330;48.158;11.816;2023-03-19T18:08:57;11.20;98.50
4635;DHT22;2330;48.158;11.816;2023-03-19T18:11:24;11.10;98.50
4635;DHT22;2330;48.158;11.816;2023-03-19T18:13:51;11.00;98.50
4635;DHT22;2330;48.158;11.816;2023-03-19T18:16:27;11.00;98.50
4635;DHT22;2330;48.158;11.816;2023-03-19T18:18:57;10.90;98.50
4635;DHT22;2330;48.158;11.816;2023-03-19T18:21:26;10.90;98.50
4635;DHT22;2330;48.158;11.816;2023-03-19T18:23:53;10.90;98.50
4635;DHT22;2330;48.158;11.816;2023-03-19T18:26:20;10.80;98.50
4635;DHT22;2330;48.158;11.816;2023-03-19T18:28:47;10.70;98.50
4635;DHT22;2330;48.158;11.816;2023-03-19T18:31:17;10.70;98.50